Flight Track Log - Related Links

Times and Time Zones

All times are in EDT time to prevent confusion due to time zone crossing. See the EGF3483 flight status page for this flight to view local times or setup timezone preferences in your user account.

Time Position Orientation Groundspeed Altitude Reporting Facility
EDT Latitude Longitude Course Direction KTS MPH feet Rate Location/Type
Fri 07:29:43 PM 25.8028 -80.2539 318° Northwest 175 201 1,200  Level Miami Center
Fri 07:30:43 PM 25.8125 -80.1894 80° East 216 249 3,400 2,154 Climbing Miami Center
Fri 07:31:00 PM 25.9152 -80.4319 318° Northwest  Level FlightAware Approximate
Fri 07:31:01 PM 25.8214 -80.1758 54° Northeast 243 280 4,000  Level Miami Center
Fri 07:31:43 PM 25.8756 -80.1728 North 269 310 5,600 2,291 Climbing Miami Center
Fri 07:31:56 PM 25.8881 -80.1756 349° North 273 314 6,100 1,400 Climbing Miami Center
Fri 07:32:00 PM 25.9764 -80.5114 314° West  Level FlightAware Approximate
Fri 07:32:43 PM 25.9528 -80.1819 355° North 303 349 7,000  Level Miami Center
Fri 07:33:00 PM 26.0414 -80.5871 314° West  Level FlightAware Approximate
Fri 07:33:43 PM 26.0189 -80.2161 335° Northwest 310 357 7,700  Level Miami Center
Fri 07:34:00 PM 26.1094 -80.6594 318° Northwest  Level FlightAware Approximate
Fri 07:34:43 PM 26.0358 -80.2975 283° West 243 280 10,000  Level Miami Center
Fri 07:35:00 PM 26.1795 -80.7295 318° Northwest  Level FlightAware Approximate
Fri 07:35:43 PM 26.0483 -80.3856 279° West 255 293 11,500  Level Miami Center
Fri 07:36:43 PM 26.0647 -80.4808 281° West 285 328 13,000 1,500 Climbing Miami Center
Fri 07:37:43 PM 26.0808 -80.5856 280° West 319 367 14,500 1,550 Climbing Miami Center
Fri 07:38:43 PM 26.1225 -80.6747 298° West 330 380 16,100 1,600 Climbing Miami Center
Fri 07:39:43 PM 26.1958 -80.7464 319° Northwest 335 386 17,700 1,550 Climbing Miami Center
Fri 07:40:43 PM 26.2628 -80.8181 316° Northwest 340 391 19,200 1,500 Climbing Miami Center
Fri 07:41:43 PM 26.3278 -80.8831 318° Northwest 340 391 20,700 1,600 Climbing Miami Center
Fri 07:42:43 PM 26.4050 -80.9644 317° Northwest 345 397 22,400 1,550 Climbing Miami Center
Fri 07:43:43 PM 26.4808 -81.0158 329° Northwest 345 397 23,800 1,450 Climbing Miami Center
Fri 07:44:43 PM 26.5708 -81.0722 331° Northwest 345 397 25,300 1,200 Climbing Miami Center
Fri 07:45:43 PM 26.6508 -81.1239 330° Northwest 333 383 26,200 900 Climbing Miami Center
Fri 07:46:43 PM 26.7206 -81.1706 329° Northwest 326 375 27,100 900 Climbing Miami Center
Fri 07:47:43 PM 26.8125 -81.2322 329° Northwest 332 382 28,000 450 Climbing Miami Center
Fri 07:48:43 PM 26.9072 -81.2778 337° Northwest 350 403 28,000  Level Miami Center
Fri 07:49:43 PM 27.0147 -81.3144 343° North 387 445 28,000  Level Miami Center
Fri 07:50:43 PM 27.1158 -81.3508 342° North 404 465 28,000 -50 Level Miami Center
Fri 07:51:43 PM 27.2294 -81.3903 343° North 421 484 27,900 -800 Descending Miami Center
Fri 07:52:43 PM 27.3553 -81.4350 342° North 427 491 26,400 -1,300 Descending Miami Center
Fri 07:53:43 PM 27.4669 -81.4722 344° North 420 483 25,300 -1,050 Descending Miami Center
Fri 07:54:43 PM 27.5742 -81.5117 342° North 415 478 24,300 -650 Descending Miami Center
Fri 07:55:43 PM 27.6692 -81.5436 343° North 403 464 24,000 -150 Descending Miami Center
Fri 07:56:43 PM 27.7703 -81.5808 342° North 392 451 24,000  Level Miami Center
Fri 07:57:43 PM 27.8897 -81.6233 343° North 392 451 24,000  Level Miami Center
Fri 07:59:58 PM 28.1486 -81.7108 343° North 416 479 24,000  Level Jacksonville Center
Fri 08:00:59 PM 28.2658 -81.7519 343° North 429 494 24,000 -50 Level Jacksonville Center
Fri 08:01:59 PM 28.3811 -81.7931 343° North 435 501 23,900 -750 Descending Jacksonville Center
Fri 08:02:59 PM 28.4942 -81.8367 341° North 435 501 22,500 -958 Descending Jacksonville Center
Fri 08:03:58 PM 28.6050 -81.8758 343° North 423 487 22,000 -250 Descending Jacksonville Center
Fri 08:04:59 PM 28.7117 -81.9150 342° North 417 480 22,000 -400 Level Jacksonville Center
Fri 08:05:58 PM 28.8206 -81.9542 343° North 411 473 21,200 -1,326 Descending Jacksonville Center
Fri 08:06:25 PM 28.8644 -81.9728 340° North 379 436 20,100 -2,400 Descending Jacksonville Center
Fri 08:06:58 PM 28.9128 -81.9864 346° North 399 459 18,800 -2,750 Descending Jacksonville Center
Fri 08:07:37 PM 28.9900 -82.0167 341° North 382 440 16,800 -3,000 Descending Jacksonville Center
Fri 08:07:58 PM 29.0194 -82.0283 341° North 380 437 15,800 -3,049 Descending Jacksonville Center
Fri 08:08:38 PM 29.0906 -82.0489 346° North 371 427 13,700 -3,200 Descending Jacksonville Center
Fri 08:08:58 PM 29.1217 -82.0489 360° North 370 426 12,600 -2,557 Descending Jacksonville Center
Fri 08:09:39 PM 29.1969 -82.0528 357° North 371 427 11,100 -1,869 Descending Jacksonville Center
Fri 08:09:59 PM 29.2261 -82.0478 North 370 426 10,700 -1,151 Descending Jacksonville Center
Fri 08:10:52 PM 29.3097 -82.0542 356° North 305 351 9,700 -1,200 Descending Jacksonville Center
Fri 08:10:59 PM 29.3117 -82.0567 312° West 347 399 9,500 -1,800 Descending Jacksonville Center
Fri 08:11:52 PM 29.3872 -82.0847 342° North 283 326 7,900 -1,831 Descending Jacksonville Center
Fri 08:11:58 PM 29.3892 -82.0847 360° North 312 359 7,700 -1,770 Descending Jacksonville Center
Fri 08:12:53 PM 29.4561 -82.1150 339° North 275 316 6,100 -1,770 Descending Jacksonville Center
Fri 08:12:59 PM 29.4644 -82.1150 360° North 288 331 5,900 -1,909 Descending Jacksonville Center
Fri 08:13:59 PM 29.5397 -82.1217 356° North 275 316 4,000 -1,770 Descending Jacksonville Center
Fri 08:14:00 PM 29.5378 -82.1239 225° Southwest 280 322 4,100 -1,527 Climbing Jacksonville Center
Fri 08:14:54 PM 29.6106 -82.1161 North 276 318 2,600 -1,655 Descending Jacksonville Center
Fri 08:14:58 PM 29.6169 -82.1136 19° North 275 316 2,500 -787 Descending Jacksonville Center
Fri 08:15:55 PM 29.6653 -82.1564 322° Northwest 227 261 1,800 -787 Descending Jacksonville Center
Fri 08:15:59 PM 29.6672 -82.1564 360° North 238 274 1,700 -896 Descending Jacksonville Center
Fri 08:17:02 PM 29.6781 -82.2161 282° West 145 167 800 -857 Descending Jacksonville Center

Login

Don't have an account? Register now (free) for customized features, flight alerts, and more!